sensor_id;sensor_type;location;lat;lon;timestamp;temperature;humidity
1506;DHT22;744;51.436;7.356;2023-06-24T00:00:11;22.10;43.30
1506;DHT22;744;51.436;7.356;2023-06-24T00:02:40;22.10;43.50
1506;DHT22;744;51.436;7.356;2023-06-24T00:05:10;22.10;43.60
1506;DHT22;744;51.436;7.356;2023-06-24T00:07:37;22.10;43.60
1506;DHT22;744;51.436;7.356;2023-06-24T00:10:14;22.10;43.60
1506;DHT22;744;51.436;7.356;2023-06-24T00:12:43;22.00;43.60
1506;DHT22;744;51.436;7.356;2023-06-24T00:15:10;22.00;43.80
1506;DHT22;744;51.436;7.356;2023-06-24T00:17:37;21.90;44.10
1506;DHT22;744;51.436;7.356;2023-06-24T00:20:05;21.80;44.00
1506;DHT22;744;51.436;7.356;2023-06-24T00:22:34;21.80;44.00
1506;DHT22;744;51.436;7.356;2023-06-24T00:25:01;21.90;44.10
1506;DHT22;744;51.436;7.356;2023-06-24T00:27:27;21.80;44.00
1506;DHT22;744;51.436;7.356;2023-06-24T00:29:54;21.80;44.00
1506;DHT22;744;51.436;7.356;2023-06-24T00:32:22;21.70;44.00
1506;DHT22;744;51.436;7.356;2023-06-24T00:34:49;21.70;44.10
1506;DHT22;744;51.436;7.356;2023-06-24T00:37:17;21.70;44.10
1506;DHT22;744;51.436;7.356;2023-06-24T00:39:44;21.70;44.10
1506;DHT22;744;51.436;7.356;2023-06-24T00:42:11;21.60;44.20
1506;DHT22;744;51.436;7.356;2023-06-24T00:44:38;21.60;44.50
1506;DHT22;744;51.436;7.356;2023-06-24T00:47:06;21.60;44.50
1506;DHT22;744;51.436;7.356;2023-06-24T00:49:34;21.60;44.60
1506;DHT22;744;51.436;7.356;2023-06-24T00:52:01;21.60;44.60
1506;DHT22;744;51.436;7.356;2023-06-24T00:54:28;21.50;44.60
1506;DHT22;744;51.436;7.356;2023-06-24T00:56:58;21.50;44.70
1506;DHT22;744;51.436;7.356;2023-06-24T00:59:27;21.50;44.60
1506;DHT22;744;51.436;7.356;2023-06-24T01:01:59;21.50;44.70
1506;DHT22;744;51.436;7.356;2023-06-24T01:04:31;21.40;45.40
1506;DHT22;744;51.436;7.356;2023-06-24T01:07:00;21.50;44.90
1506;DHT22;744;51.436;7.356;2023-06-24T01:09:28;21.50;44.90
1506;DHT22;744;51.436;7.356;2023-06-24T01:11:55;21.40;45.00
1506;DHT22;744;51.436;7.356;2023-06-24T01:14:22;21.40;45.00
1506;DHT22;744;51.436;7.356;2023-06-24T01:17:14;21.40;45.20
1506;DHT22;744;51.436;7.356;2023-06-24T01:32:22;21.20;45.20
1506;DHT22;744;51.436;7.356;2023-06-24T01:34:55;21.20;45.30
1506;DHT22;744;51.436;7.356;2023-06-24T01:37:45;21.10;45.30
1506;DHT22;744;51.436;7.356;2023-06-24T01:40:32;21.10;45.40
1506;DHT22;744;51.436;7.356;2023-06-24T01:43:03;21.00;45.60
1506;DHT22;744;51.436;7.356;2023-06-24T01:45:40;21.00;45.90
1506;DHT22;744;51.436;7.356;2023-06-24T01:48:13;21.00;46.00
1506;DHT22;744;51.436;7.356;2023-06-24T01:50:48;21.00;46.00
1506;DHT22;744;51.436;7.356;2023-06-24T01:53:17;21.00;46.10
1506;DHT22;744;51.436;7.356;2023-06-24T01:55:46;21.00;46.00
1506;DHT22;744;51.436;7.356;2023-06-24T01:58:14;20.90;46.10
1506;DHT22;744;51.436;7.356;2023-06-24T02:00:44;20.90;46.10
1506;DHT22;744;51.436;7.356;2023-06-24T02:03:11;20.90;46.20
1506;DHT22;744;51.436;7.356;2023-06-24T02:05:40;20.90;46.20
1506;DHT22;744;51.436;7.356;2023-06-24T02:08:10;21.00;46.30
1506;DHT22;744;51.436;7.356;2023-06-24T02:10:38;20.90;46.20
1506;DHT22;744;51.436;7.356;2023-06-24T02:13:08;20.90;46.20
1506;DHT22;744;51.436;7.356;2023-06-24T02:15:36;20.90;46.20
1506;DHT22;744;51.436;7.356;2023-06-24T02:18:05;20.90;46.30
1506;DHT22;744;51.436;7.356;2023-06-24T02:20:33;20.80;46.20
1506;DHT22;744;51.436;7.356;2023-06-24T02:23:01;20.90;46.40
1506;DHT22;744;51.436;7.356;2023-06-24T02:25:29;20.90;46.20
1506;DHT22;744;51.436;7.356;2023-06-24T02:27:56;20.90;46.40
1506;DHT22;744;51.436;7.356;2023-06-24T02:30:23;20.80;46.50
1506;DHT22;744;51.436;7.356;2023-06-24T02:32:51;20.70;46.50
1506;DHT22;744;51.436;7.356;2023-06-24T02:35:18;20.70;46.60
1506;DHT22;744;51.436;7.356;2023-06-24T02:37:45;20.70;46.70
1506;DHT22;744;51.436;7.356;2023-06-24T02:40:12;20.70;46.90
1506;DHT22;744;51.436;7.356;2023-06-24T02:42:39;20.60;47.00
1506;DHT22;744;51.436;7.356;2023-06-24T02:45:06;20.60;47.00
1506;DHT22;744;51.436;7.356;2023-06-24T02:47:34;20.60;47.00
1506;DHT22;744;51.436;7.356;2023-06-24T02:50:06;20.70;47.00
1506;DHT22;744;51.436;7.356;2023-06-24T02:52:34;20.70;47.10
1506;DHT22;744;51.436;7.356;2023-06-24T02:55:04;20.60;47.00
1506;DHT22;744;51.436;7.356;2023-06-24T02:57:33;20.60;47.30
1506;DHT22;744;51.436;7.356;2023-06-24T03:00:00;20.60;47.30
1506;DHT22;744;51.436;7.356;2023-06-24T03:02:29;20.60;47.50
1506;DHT22;744;51.436;7.356;2023-06-24T03:04:57;20.50;47.40
1506;DHT22;744;51.436;7.356;2023-06-24T03:07:25;20.50;47.50
1506;DHT22;744;51.436;7.356;2023-06-24T03:09:52;20.40;47.40
1506;DHT22;744;51.436;7.356;2023-06-24T03:12:19;20.40;47.40
1506;DHT22;744;51.436;7.356;2023-06-24T03:14:46;20.40;47.40
1506;DHT22;744;51.436;7.356;2023-06-24T03:17:13;20.40;47.40
1506;DHT22;744;51.436;7.356;2023-06-24T03:19:41;20.40;47.40
1506;DHT22;744;51.436;7.356;2023-06-24T03:22:08;20.30;47.30
1506;DHT22;744;51.436;7.356;2023-06-24T03:24:35;20.30;47.30
1506;DHT22;744;51.436;7.356;2023-06-24T03:27:02;20.30;47.30
1506;DHT22;744;51.436;7.356;2023-06-24T03:29:29;20.30;47.20
1506;DHT22;744;51.436;7.356;2023-06-24T03:31:55;20.20;47.20
1506;DHT22;744;51.436;7.356;2023-06-24T03:34:22;20.20;47.20
1506;DHT22;744;51.436;7.356;2023-06-24T03:36:49;20.20;47.20
1506;DHT22;744;51.436;7.356;2023-06-24T03:39:16;20.20;47.20
1506;DHT22;744;51.436;7.356;2023-06-24T03:41:43;20.20;47.20
1506;DHT22;744;51.436;7.356;2023-06-24T03:44:10;20.30;47.30
1506;DHT22;744;51.436;7.356;2023-06-24T03:46:36;20.40;47.40
1506;DHT22;744;51.436;7.356;2023-06-24T03:49:04;20.40;47.40
1506;DHT22;744;51.436;7.356;2023-06-24T03:51:31;20.50;47.50
1506;DHT22;744;51.436;7.356;2023-06-24T03:53:58;20.50;47.50
1506;DHT22;744;51.436;7.356;2023-06-24T03:56:25;20.50;47.50
1506;DHT22;744;51.436;7.356;2023-06-24T03:58:51;20.40;47.40
1506;DHT22;744;51.436;7.356;2023-06-24T04:01:18;20.40;47.40
1506;DHT22;744;51.436;7.356;2023-06-24T04:03:46;20.40;47.40
1506;DHT22;744;51.436;7.356;2023-06-24T04:06:13;20.40;47.40
1506;DHT22;744;51.436;7.356;2023-06-24T04:08:40;20.40;47.40
1506;DHT22;744;51.436;7.356;2023-06-24T04:11:10;20.40;47.40
1506;DHT22;744;51.436;7.356;2023-06-24T04:13:36;20.40;47.40
1506;DHT22;744;51.436;7.356;2023-06-24T04:16:03;20.40;47.40
1506;DHT22;744;51.436;7.356;2023-06-24T04:18:30;20.40;47.40
1506;DHT22;744;51.436;7.356;2023-06-24T04:20:57;20.40;47.60
1506;DHT22;744;51.436;7.356;2023-06-24T04:23:24;20.40;47.70
1506;DHT22;744;51.436;7.356;2023-06-24T04:25:51;20.40;47.60
1506;DHT22;744;51.436;7.356;2023-06-24T04:28:18;20.50;47.70
1506;DHT22;744;51.436;7.356;2023-06-24T04:30:44;20.50;47.90
1506;DHT22;744;51.436;7.356;2023-06-24T04:33:11;20.60;47.80
1506;DHT22;744;51.436;7.356;2023-06-24T04:35:38;20.60;47.80
1506;DHT22;744;51.436;7.356;2023-06-24T04:38:05;20.60;47.80
1506;DHT22;744;51.436;7.356;2023-06-24T04:40:32;20.60;47.90
1506;DHT22;744;51.436;7.356;2023-06-24T04:42:59;20.70;48.20
1506;DHT22;744;51.436;7.356;2023-06-24T04:45:25;20.60;48.10
1506;DHT22;744;51.436;7.356;2023-06-24T04:47:52;20.70;48.30
1506;DHT22;744;51.436;7.356;2023-06-24T04:50:20;20.80;48.30
1506;DHT22;744;51.436;7.356;2023-06-24T04:52:52;20.80;48.30
1506;DHT22;744;51.436;7.356;2023-06-24T04:55:22;20.90;48.30
1506;DHT22;744;51.436;7.356;2023-06-24T04:57:48;20.90;48.30
1506;DHT22;744;51.436;7.356;2023-06-24T05:00:16;21.00;48.30
1506;DHT22;744;51.436;7.356;2023-06-24T05:02:43;21.00;48.20
1506;DHT22;744;51.436;7.356;2023-06-24T05:05:09;21.00;47.90
1506;DHT22;744;51.436;7.356;2023-06-24T05:07:36;21.10;47.90
1506;DHT22;744;51.436;7.356;2023-06-24T05:10:04;21.10;48.00
1506;DHT22;744;51.436;7.356;2023-06-24T05:12:30;21.10;48.00
1506;DHT22;744;51.436;7.356;2023-06-24T05:14:57;21.10;48.00
1506;DHT22;744;51.436;7.356;2023-06-24T05:17:24;21.20;48.10
1506;DHT22;744;51.436;7.356;2023-06-24T05:19:51;21.20;48.00
1506;DHT22;744;51.436;7.356;2023-06-24T05:22:18;21.20;48.10
1506;DHT22;744;51.436;7.356;2023-06-24T05:24:45;21.20;48.10
1506;DHT22;744;51.436;7.356;2023-06-24T05:27:12;21.20;48.00
1506;DHT22;744;51.436;7.356;2023-06-24T05:29:38;21.30;48.10
1506;DHT22;744;51.436;7.356;2023-06-24T05:32:06;21.30;48.10
1506;DHT22;744;51.436;7.356;2023-06-24T05:34:32;21.40;48.20
1506;DHT22;744;51.436;7.356;2023-06-24T05:37:01;21.40;48.20
1506;DHT22;744;51.436;7.356;2023-06-24T05:39:29;21.50;48.30
1506;DHT22;744;51.436;7.356;2023-06-24T05:41:56;21.60;48.40
1506;DHT22;744;51.436;7.356;2023-06-24T05:44:23;21.70;48.50
1506;DHT22;744;51.436;7.356;2023-06-24T05:46:50;21.80;49.20
1506;DHT22;744;51.436;7.356;2023-06-24T05:49:17;21.80;48.60
1506;DHT22;744;51.436;7.356;2023-06-24T05:51:44;21.80;49.20
1506;DHT22;744;51.436;7.356;2023-06-24T05:54:11;21.90;48.60
1506;DHT22;744;51.436;7.356;2023-06-24T05:56:37;22.00;48.50
1506;DHT22;744;51.436;7.356;2023-06-24T05:59:06;22.00;48.10
1506;DHT22;744;51.436;7.356;2023-06-24T06:01:33;22.00;48.20
1506;DHT22;744;51.436;7.356;2023-06-24T06:04:00;21.90;48.30
1506;DHT22;744;51.436;7.356;2023-06-24T06:06:27;22.00;48.50
1506;DHT22;744;51.436;7.356;2023-06-24T06:08:54;22.00;48.60
1506;DHT22;744;51.436;7.356;2023-06-24T06:11:21;22.10;48.70
1506;DHT22;744;51.436;7.356;2023-06-24T06:13:48;22.10;48.40
1506;DHT22;744;51.436;7.356;2023-06-24T06:16:15;22.20;48.30
1506;DHT22;744;51.436;7.356;2023-06-24T06:18:42;22.20;48.10
1506;DHT22;744;51.436;7.356;2023-06-24T06:21:09;22.30;48.10
1506;DHT22;744;51.436;7.356;2023-06-24T06:23:35;22.40;48.00
1506;DHT22;744;51.436;7.356;2023-06-24T06:26:02;22.40;47.80
1506;DHT22;744;51.436;7.356;2023-06-24T06:28:29;22.40;47.80
1506;DHT22;744;51.436;7.356;2023-06-24T06:30:56;22.40;47.80
1506;DHT22;744;51.436;7.356;2023-06-24T06:33:23;22.50;47.80
1506;DHT22;744;51.436;7.356;2023-06-24T06:35:50;22.50;47.90
1506;DHT22;744;51.436;7.356;2023-06-24T06:38:17;22.70;47.90
1506;DHT22;744;51.436;7.356;2023-06-24T06:40:44;22.80;47.70
1506;DHT22;744;51.436;7.356;2023-06-24T06:43:11;22.90;47.50
1506;DHT22;744;51.436;7.356;2023-06-24T06:45:38;22.90;47.30
1506;DHT22;744;51.436;7.356;2023-06-24T06:48:05;23.00;47.40
1506;DHT22;744;51.436;7.356;2023-06-24T06:50:35;23.10;47.30
1506;DHT22;744;51.436;7.356;2023-06-24T06:53:02;23.20;47.10
1506;DHT22;744;51.436;7.356;2023-06-24T06:55:29;23.20;46.90
1506;DHT22;744;51.436;7.356;2023-06-24T06:57:56;23.30;46.70
1506;DHT22;744;51.436;7.356;2023-06-24T07:00:23;23.30;46.70
1506;DHT22;744;51.436;7.356;2023-06-24T07:02:50;23.30;46.80
1506;DHT22;744;51.436;7.356;2023-06-24T07:05:17;23.40;47.00
1506;DHT22;744;51.436;7.356;2023-06-24T07:07:44;23.40;47.00
1506;DHT22;744;51.436;7.356;2023-06-24T07:10:12;23.40;46.70
1506;DHT22;744;51.436;7.356;2023-06-24T07:12:39;23.50;46.90
1506;DHT22;744;51.436;7.356;2023-06-24T07:15:06;23.50;46.70
1506;DHT22;744;51.436;7.356;2023-06-24T07:17:36;23.60;46.70
1506;DHT22;744;51.436;7.356;2023-06-24T07:20:03;23.50;46.60
1506;DHT22;744;51.436;7.356;2023-06-24T07:22:30;23.60;46.70
1506;DHT22;744;51.436;7.356;2023-06-24T07:24:57;23.80;46.70
1506;DHT22;744;51.436;7.356;2023-06-24T07:27:24;23.80;46.20
1506;DHT22;744;51.436;7.356;2023-06-24T07:29:51;23.80;46.20
1506;DHT22;744;51.436;7.356;2023-06-24T07:32:18;23.90;46.50
1506;DHT22;744;51.436;7.356;2023-06-24T07:34:44;24.10;46.40
1506;DHT22;744;51.436;7.356;2023-06-24T07:37:11;24.20;46.10
1506;DHT22;744;51.436;7.356;2023-06-24T07:39:50;24.20;46.10
1506;DHT22;744;51.436;7.356;2023-06-24T07:42:17;24.20;46.10
1506;DHT22;744;51.436;7.356;2023-06-24T07:44:46;24.20;46.10
1506;DHT22;744;51.436;7.356;2023-06-24T07:47:14;24.20;46.10
1506;DHT22;744;51.436;7.356;2023-06-24T07:49:40;24.30;46.00
1506;DHT22;744;51.436;7.356;2023-06-24T07:52:07;24.40;45.70
1506;DHT22;744;51.436;7.356;2023-06-24T07:54:34;24.40;45.50
1506;DHT22;744;51.436;7.356;2023-06-24T07:57:02;24.50;45.70
1506;DHT22;744;51.436;7.356;2023-06-24T07:59:29;24.50;45.30
1506;DHT22;744;51.436;7.356;2023-06-24T08:01:56;24.60;45.50
1506;DHT22;744;51.436;7.356;2023-06-24T08:04:23;24.70;46.40
1506;DHT22;744;51.436;7.356;2023-06-24T08:06:50;24.70;45.00
1506;DHT22;744;51.436;7.356;2023-06-24T08:09:17;24.80;45.00
1506;DHT22;744;51.436;7.356;2023-06-24T08:11:44;24.80;44.40
1506;DHT22;744;51.436;7.356;2023-06-24T08:14:11;24.80;44.10
1506;DHT22;744;51.436;7.356;2023-06-24T08:16:37;24.90;44.10
1506;DHT22;744;51.436;7.356;2023-06-24T08:19:04;25.00;44.00
1506;DHT22;744;51.436;7.356;2023-06-24T08:21:31;24.90;43.70
1506;DHT22;744;51.436;7.356;2023-06-24T08:23:59;25.00;43.80
1506;DHT22;744;51.436;7.356;2023-06-24T08:26:26;25.10;43.60
1506;DHT22;744;51.436;7.356;2023-06-24T08:28:52;25.30;43.50
1506;DHT22;744;51.436;7.356;2023-06-24T08:31:19;25.30;44.00
1506;DHT22;744;51.436;7.356;2023-06-24T08:33:52;25.40;43.40
1506;DHT22;744;51.436;7.356;2023-06-24T08:36:22;25.40;43.20
1506;DHT22;744;51.436;7.356;2023-06-24T08:38:50;25.40;42.40
1506;DHT22;744;51.436;7.356;2023-06-24T08:41:17;25.50;42.50
1506;DHT22;744;51.436;7.356;2023-06-24T08:43:44;25.50;42.50
1506;DHT22;744;51.436;7.356;2023-06-24T08:46:13;25.50;42.90
1506;DHT22;744;51.436;7.356;2023-06-24T08:48:43;25.50;43.00
1506;DHT22;744;51.436;7.356;2023-06-24T08:51:13;25.50;43.30
1506;DHT22;744;51.436;7.356;2023-06-24T08:53:43;25.70;42.80
1506;DHT22;744;51.436;7.356;2023-06-24T08:56:11;25.60;42.70
1506;DHT22;744;51.436;7.356;2023-06-24T08:58:38;25.50;42.50
1506;DHT22;744;51.436;7.356;2023-06-24T09:01:06;25.60;42.70
1506;DHT22;744;51.436;7.356;2023-06-24T09:03:33;25.60;43.50
1506;DHT22;744;51.436;7.356;2023-06-24T09:06:00;25.70;43.50
1506;DHT22;744;51.436;7.356;2023-06-24T09:08:27;25.80;43.80
1506;DHT22;744;51.436;7.356;2023-06-24T09:10:54;25.90;43.40
1506;DHT22;744;51.436;7.356;2023-06-24T09:13:36;25.90;42.70
1506;DHT22;744;51.436;7.356;2023-06-24T09:16:13;25.80;42.70
1506;DHT22;744;51.436;7.356;2023-06-24T09:18:41;25.70;42.60
1506;DHT22;744;51.436;7.356;2023-06-24T09:21:10;25.50;42.50
1506;DHT22;744;51.436;7.356;2023-06-24T09:23:37;25.40;42.40
1506;DHT22;744;51.436;7.356;2023-06-24T09:26:09;25.40;42.40
1506;DHT22;744;51.436;7.356;2023-06-24T09:28:36;25.40;42.10
1506;DHT22;744;51.436;7.356;2023-06-24T09:31:05;25.30;42.30
1506;DHT22;744;51.436;7.356;2023-06-24T09:33:45;25.50;41.70
1506;DHT22;744;51.436;7.356;2023-06-24T09:36:16;25.50;41.60
1506;DHT22;744;51.436;7.356;2023-06-24T09:38:43;25.60;41.40
1506;DHT22;744;51.436;7.356;2023-06-24T09:41:14;25.60;40.60
1506;DHT22;744;51.436;7.356;2023-06-24T09:43:42;25.70;40.70
1506;DHT22;744;51.436;7.356;2023-06-24T09:46:11;25.80;40.40
1506;DHT22;744;51.436;7.356;2023-06-24T09:48:39;25.90;40.20
1506;DHT22;744;51.436;7.356;2023-06-24T09:51:07;26.00;39.40
1506;DHT22;744;51.436;7.356;2023-06-24T09:53:35;25.90;39.40
1506;DHT22;744;51.436;7.356;2023-06-24T09:56:04;26.00;39.60
1506;DHT22;744;51.436;7.356;2023-06-24T09:58:35;26.00;39.60
1506;DHT22;744;51.436;7.356;2023-06-24T10:01:04;26.20;39.40
1506;DHT22;744;51.436;7.356;2023-06-24T10:03:36;26.30;39.40
1506;DHT22;744;51.436;7.356;2023-06-24T10:06:05;26.40;38.80
1506;DHT22;744;51.436;7.356;2023-06-24T10:08:32;26.50;38.70
1506;DHT22;744;51.436;7.356;2023-06-24T10:11:00;26.50;38.50
1506;DHT22;744;51.436;7.356;2023-06-24T10:13:28;26.50;38.50
1506;DHT22;744;51.436;7.356;2023-06-24T10:15:56;26.50;38.50
1506;DHT22;744;51.436;7.356;2023-06-24T10:18:44;26.60;38.50
1506;DHT22;744;51.436;7.356;2023-06-24T10:21:11;26.60;38.50
1506;DHT22;744;51.436;7.356;2023-06-24T10:26:25;26.80;38.60
1506;DHT22;744;51.436;7.356;2023-06-24T10:39:53;26.90;37.70
1506;DHT22;744;51.436;7.356;2023-06-24T10:45:01;26.70;37.50
1506;DHT22;744;51.436;7.356;2023-06-24T10:47:29;26.80;37.10
1506;DHT22;744;51.436;7.356;2023-06-24T10:49:57;26.90;37.30
1506;DHT22;744;51.436;7.356;2023-06-24T10:52:24;27.20;37.10
1506;DHT22;744;51.436;7.356;2023-06-24T10:54:51;27.30;36.40
1506;DHT22;744;51.436;7.356;2023-06-24T10:57:24;27.40;35.70
1506;DHT22;744;51.436;7.356;2023-06-24T10:59:52;27.50;35.20
1506;DHT22;744;51.436;7.356;2023-06-24T11:02:21;27.60;34.40
1506;DHT22;744;51.436;7.356;2023-06-24T11:04:57;27.70;34.50
1506;DHT22;744;51.436;7.356;2023-06-24T11:07:29;27.80;34.50
1506;DHT22;744;51.436;7.356;2023-06-24T11:10:00;27.70;33.60
1506;DHT22;744;51.436;7.356;2023-06-24T11:12:30;27.50;33.50
1506;DHT22;744;51.436;7.356;2023-06-24T11:14:58;27.40;33.80
1506;DHT22;744;51.436;7.356;2023-06-24T11:17:26;27.20;34.10
1506;DHT22;744;51.436;7.356;2023-06-24T11:19:54;27.30;34.20
1506;DHT22;744;51.436;7.356;2023-06-24T11:22:22;27.20;34.10
1506;DHT22;744;51.436;7.356;2023-06-24T11:24:49;27.10;34.10
1506;DHT22;744;51.436;7.356;2023-06-24T11:27:16;27.10;34.10
1506;DHT22;744;51.436;7.356;2023-06-24T11:29:44;27.20;34.10
1506;DHT22;744;51.436;7.356;2023-06-24T11:32:11;27.30;34.20
1506;DHT22;744;51.436;7.356;2023-06-24T11:34:38;27.40;34.00
1506;DHT22;744;51.436;7.356;2023-06-24T11:37:16;27.40;32.20
1506;DHT22;744;51.436;7.356;2023-06-24T11:39:43;27.40;32.00
1506;DHT22;744;51.436;7.356;2023-06-24T11:42:11;27.70;31.70
1506;DHT22;744;51.436;7.356;2023-06-24T11:44:41;27.70;30.60
1506;DHT22;744;51.436;7.356;2023-06-24T11:47:11;27.60;29.80
1506;DHT22;744;51.436;7.356;2023-06-24T11:49:52;27.60;30.00
1506;DHT22;744;51.436;7.356;2023-06-24T11:52:19;27.60;29.40
1506;DHT22;744;51.436;7.356;2023-06-24T11:54:53;27.40;29.70
1506;DHT22;744;51.436;7.356;2023-06-24T11:57:20;27.30;30.50
1506;DHT22;744;51.436;7.356;2023-06-24T11:59:51;27.30;30.40
1506;DHT22;744;51.436;7.356;2023-06-24T12:02:19;27.40;29.70
1506;DHT22;744;51.436;7.356;2023-06-24T12:04:46;27.60;29.40
1506;DHT22;744;51.436;7.356;2023-06-24T12:07:14;27.70;28.50
1506;DHT22;744;51.436;7.356;2023-06-24T12:09:41;27.70;28.10
1506;DHT22;744;51.436;7.356;2023-06-24T12:12:08;27.80;28.40
1506;DHT22;744;51.436;7.356;2023-06-24T12:14:35;27.90;27.70
1506;DHT22;744;51.436;7.356;2023-06-24T12:17:02;28.00;27.40
1506;DHT22;744;51.436;7.356;2023-06-24T12:19:29;28.10;28.10
1506;DHT22;744;51.436;7.356;2023-06-24T12:21:56;28.10;28.80
1506;DHT22;744;51.436;7.356;2023-06-24T12:24:23;28.10;28.30
1506;DHT22;744;51.436;7.356;2023-06-24T12:26:50;28.10;28.20
1506;DHT22;744;51.436;7.356;2023-06-24T12:29:19;28.00;27.90
1506;DHT22;744;51.436;7.356;2023-06-24T12:31:45;28.10;28.30
1506;DHT22;744;51.436;7.356;2023-06-24T12:34:12;28.10;28.10
1506;DHT22;744;51.436;7.356;2023-06-24T12:36:39;28.20;27.70
1506;DHT22;744;51.436;7.356;2023-06-24T12:39:06;28.20;27.50
1506;DHT22;744;51.436;7.356;2023-06-24T12:41:33;28.10;27.00
1506;DHT22;744;51.436;7.356;2023-06-24T12:44:00;28.20;26.30
1506;DHT22;744;51.436;7.356;2023-06-24T12:46:26;28.30;26.30
1506;DHT22;744;51.436;7.356;2023-06-24T12:48:53;28.40;26.40
1506;DHT22;744;51.436;7.356;2023-06-24T12:51:20;28.60;26.10
1506;DHT22;744;51.436;7.356;2023-06-24T12:53:47;28.40;25.80
1506;DHT22;744;51.436;7.356;2023-06-24T12:56:15;28.40;25.70
1506;DHT22;744;51.436;7.356;2023-06-24T12:58:41;28.40;26.30
1506;DHT22;744;51.436;7.356;2023-06-24T13:01:08;28.50;26.50
1506;DHT22;744;51.436;7.356;2023-06-24T13:03:37;28.60;26.00
1506;DHT22;744;51.436;7.356;2023-06-24T13:06:04;28.60;25.90
1506;DHT22;744;51.436;7.356;2023-06-24T13:08:31;28.60;25.80
1506;DHT22;744;51.436;7.356;2023-06-24T13:10:58;28.70;26.10
1506;DHT22;744;51.436;7.356;2023-06-24T13:13:24;28.70;25.60
1506;DHT22;744;51.436;7.356;2023-06-24T13:15:51;28.70;24.90
1506;DHT22;744;51.436;7.356;2023-06-24T13:18:18;28.60;25.10
1506;DHT22;744;51.436;7.356;2023-06-24T13:20:46;28.60;24.90
1506;DHT22;744;51.436;7.356;2023-06-24T13:23:13;28.60;25.10
1506;DHT22;744;51.436;7.356;2023-06-24T13:25:40;28.70;25.40
1506;DHT22;744;51.436;7.356;2023-06-24T13:28:07;28.90;25.10
1506;DHT22;744;51.436;7.356;2023-06-24T13:30:34;29.00;24.80
1506;DHT22;744;51.436;7.356;2023-06-24T13:33:02;29.00;24.80
1506;DHT22;744;51.436;7.356;2023-06-24T13:35:28;29.00;25.00
1506;DHT22;744;51.436;7.356;2023-06-24T13:37:55;28.90;24.50
1506;DHT22;744;51.436;7.356;2023-06-24T13:40:24;28.80;24.50
1506;DHT22;744;51.436;7.356;2023-06-24T13:42:51;28.90;25.10
1506;DHT22;744;51.436;7.356;2023-06-24T13:45:18;29.00;24.40
1506;DHT22;744;51.436;7.356;2023-06-24T13:47:45;29.00;24.50
1506;DHT22;744;51.436;7.356;2023-06-24T13:50:12;28.90;24.10
1506;DHT22;744;51.436;7.356;2023-06-24T13:52:40;28.80;24.80
1506;DHT22;744;51.436;7.356;2023-06-24T13:55:07;28.80;24.60
1506;DHT22;744;51.436;7.356;2023-06-24T13:57:34;28.90;24.40
1506;DHT22;744;51.436;7.356;2023-06-24T14:00:01;29.00;24.30
1506;DHT22;744;51.436;7.356;2023-06-24T14:02:28;29.10;24.10
1506;DHT22;744;51.436;7.356;2023-06-24T14:04:55;29.00;23.90
1506;DHT22;744;51.436;7.356;2023-06-24T14:07:22;29.10;24.20
1506;DHT22;744;51.436;7.356;2023-06-24T14:09:49;29.20;24.60
1506;DHT22;744;51.436;7.356;2023-06-24T14:12:16;29.40;24.40
1506;DHT22;744;51.436;7.356;2023-06-24T14:14:43;29.50;25.10
1506;DHT22;744;51.436;7.356;2023-06-24T14:17:10;29.60;24.40
1506;DHT22;744;51.436;7.356;2023-06-24T14:19:39;29.70;24.50
1506;DHT22;744;51.436;7.356;2023-06-24T14:22:07;29.80;24.70
1506;DHT22;744;51.436;7.356;2023-06-24T14:24:35;29.80;24.30
1506;DHT22;744;51.436;7.356;2023-06-24T14:27:07;29.80;24.20
1506;DHT22;744;51.436;7.356;2023-06-24T14:29:34;29.80;23.90
1506;DHT22;744;51.436;7.356;2023-06-24T14:32:01;29.60;23.60
1506;DHT22;744;51.436;7.356;2023-06-24T14:34:28;29.60;23.20
1506;DHT22;744;51.436;7.356;2023-06-24T14:36:56;29.60;23.90
1506;DHT22;744;51.436;7.356;2023-06-24T14:39:23;29.80;23.30
1506;DHT22;744;51.436;7.356;2023-06-24T14:41:50;29.90;23.30
1506;DHT22;744;51.436;7.356;2023-06-24T14:44:17;29.80;23.10
1506;DHT22;744;51.436;7.356;2023-06-24T14:46:44;29.70;23.20
1506;DHT22;744;51.436;7.356;2023-06-24T14:49:11;29.70;23.20
1506;DHT22;744;51.436;7.356;2023-06-24T14:51:38;29.80;23.30
1506;DHT22;744;51.436;7.356;2023-06-24T14:54:04;29.80;23.30
1506;DHT22;744;51.436;7.356;2023-06-24T14:56:31;29.90;23.30
1506;DHT22;744;51.436;7.356;2023-06-24T14:58:58;29.80;23.30
1506;DHT22;744;51.436;7.356;2023-06-24T15:01:25;29.80;23.30
1506;DHT22;744;51.436;7.356;2023-06-24T15:03:52;29.90;23.30
1506;DHT22;744;51.436;7.356;2023-06-24T15:06:19;29.80;23.30
1506;DHT22;744;51.436;7.356;2023-06-24T15:08:46;29.90;23.10
1506;DHT22;744;51.436;7.356;2023-06-24T15:11:13;29.80;22.50
1506;DHT22;744;51.436;7.356;2023-06-24T15:13:40;29.80;22.60
1506;DHT22;744;51.436;7.356;2023-06-24T15:16:06;30.00;22.40
1506;DHT22;744;51.436;7.356;2023-06-24T15:18:33;30.10;22.10
1506;DHT22;744;51.436;7.356;2023-06-24T15:21:00;30.20;22.40
1506;DHT22;744;51.436;7.356;2023-06-24T15:23:27;30.30;22.80
1506;DHT22;744;51.436;7.356;2023-06-24T15:25:54;30.40;22.60
1506;DHT22;744;51.436;7.356;2023-06-24T15:28:21;30.40;21.90
1506;DHT22;744;51.436;7.356;2023-06-24T15:30:48;30.40;20.90
1506;DHT22;744;51.436;7.356;2023-06-24T15:33:15;30.30;20.90
1506;DHT22;744;51.436;7.356;2023-06-24T15:35:42;30.40;21.40
1506;DHT22;744;51.436;7.356;2023-06-24T15:38:08;30.50;20.90
1506;DHT22;744;51.436;7.356;2023-06-24T15:40:35;30.40;20.50
1506;DHT22;744;51.436;7.356;2023-06-24T15:43:05;30.30;20.50
1506;DHT22;744;51.436;7.356;2023-06-24T15:45:32;30.30;21.00
1506;DHT22;744;51.436;7.356;2023-06-24T15:47:59;30.20;20.40
1506;DHT22;744;51.436;7.356;2023-06-24T15:50:26;30.20;20.80
1506;DHT22;744;51.436;7.356;2023-06-24T15:52:53;30.30;20.30
1506;DHT22;744;51.436;7.356;2023-06-24T15:55:20;30.50;19.90
1506;DHT22;744;51.436;7.356;2023-06-24T15:57:47;30.50;19.70
1506;DHT22;744;51.436;7.356;2023-06-24T16:00:14;30.50;19.70
1506;DHT22;744;51.436;7.356;2023-06-24T16:02:41;30.60;19.80
1506;DHT22;744;51.436;7.356;2023-06-24T16:05:08;30.70;19.80
1506;DHT22;744;51.436;7.356;2023-06-24T16:07:35;30.80;20.60
1506;DHT22;744;51.436;7.356;2023-06-24T16:10:03;30.90;20.00
1506;DHT22;744;51.436;7.356;2023-06-24T16:12:30;31.00;20.60
1506;DHT22;744;51.436;7.356;2023-06-24T16:14:57;31.00;20.80
1506;DHT22;744;51.436;7.356;2023-06-24T16:17:24;31.00;21.20
1506;DHT22;744;51.436;7.356;2023-06-24T16:19:50;31.00;20.80
1506;DHT22;744;51.436;7.356;2023-06-24T16:22:17;31.00;21.20
1506;DHT22;744;51.436;7.356;2023-06-24T16:24:44;31.00;21.10
1506;DHT22;744;51.436;7.356;2023-06-24T16:27:11;31.00;21.10
1506;DHT22;744;51.436;7.356;2023-06-24T16:29:38;31.00;20.60
1506;DHT22;744;51.436;7.356;2023-06-24T16:32:05;31.00;20.60
1506;DHT22;744;51.436;7.356;2023-06-24T16:34:31;31.10;21.10
1506;DHT22;744;51.436;7.356;2023-06-24T16:36:58;31.10;20.30
1506;DHT22;744;51.436;7.356;2023-06-24T16:39:25;31.20;20.40
1506;DHT22;744;51.436;7.356;2023-06-24T16:41:52;31.20;21.20
1506;DHT22;744;51.436;7.356;2023-06-24T16:44:19;31.20;20.50
1506;DHT22;744;51.436;7.356;2023-06-24T16:46:46;31.00;20.20
1506;DHT22;744;51.436;7.356;2023-06-24T16:49:12;31.00;20.00